createdAt,value
2022-11-18T00:01:51.867Z,99119.13
2022-11-18T00:04:20.122Z,99125.38
2022-11-18T00:06:47.994Z,99119.38
2022-11-18T00:09:16.212Z,99129.19
2022-11-18T00:12:02.392Z,99132.72
2022-11-18T00:14:31.639Z,99132.97
2022-11-18T00:17:01.435Z,99134.34
2022-11-18T00:19:30.268Z,99134.06
2022-11-18T00:21:58.432Z,99132.16
2022-11-18T00:24:26.757Z,99135.69
2022-11-18T00:26:54.657Z,99132.44
2022-11-18T00:29:22.824Z,99132.44
2022-11-18T00:31:52.393Z,99138.44
2022-11-18T00:34:20.322Z,99068.81
2022-11-18T00:36:48.461Z,99135.16
2022-11-18T00:39:17.415Z,99140.31
2022-11-18T00:42:03.236Z,99138.69
2022-11-18T00:44:31.094Z,99146.59
2022-11-18T00:47:00.354Z,99151.50
2022-11-18T00:49:28.284Z,99155.00
2022-11-18T00:51:56.438Z,99150.94
2022-11-18T00:54:24.320Z,99159.38
2022-11-18T00:56:52.227Z,99150.38
2022-11-18T00:59:20.405Z,99153.41
2022-11-18T01:01:49.099Z,99161.28
2022-11-18T01:04:18.547Z,99150.38
2022-11-18T01:06:46.392Z,99153.66
2022-11-18T01:09:14.485Z,99153.06
2022-11-18T01:11:59.726Z,99170.53
2022-11-18T01:14:27.606Z,99173.25
2022-11-18T01:16:56.134Z,99177.88
2022-11-18T01:19:25.694Z,99177.06
2022-11-18T01:21:54.018Z,99175.16
2022-11-18T01:24:21.890Z,99174.34
2022-11-18T01:26:49.840Z,99179.78
2022-11-18T01:29:18.728Z,99180.59
2022-11-18T01:32:09.360Z,99171.03
2022-11-18T01:34:36.508Z,99186.03
2022-11-18T01:37:04.351Z,99177.06
2022-11-18T01:39:32.551Z,99187.13
2022-11-18T01:42:00.699Z,99186.31
2022-11-18T01:45:10.790Z,99194.22
2022-11-18T01:47:41.494Z,99200.97
2022-11-18T01:50:10.932Z,99198.00
2022-11-18T01:52:39.062Z,99199.09
2022-11-18T01:55:09.969Z,99195.28
2022-11-18T01:57:37.812Z,99198.81
2022-11-18T02:00:09.209Z,99200.72
2022-11-18T02:02:38.054Z,99197.19
2022-11-18T02:05:06.891Z,99205.34
2022-11-18T02:07:36.406Z,99205.34
2022-11-18T02:10:05.509Z,99180.50
2022-11-18T02:12:33.687Z,99209.97
2022-11-18T02:15:01.627Z,99208.06
2022-11-18T02:17:35.027Z,99209.16
2022-11-18T02:20:20.386Z,99222.75
2022-11-18T02:23:03.082Z,99229.84
2022-11-18T02:25:33.252Z,99228.19
2022-11-18T02:28:19.796Z,99229.84
2022-11-18T02:30:50.784Z,99230.09
2022-11-18T02:33:19.533Z,99234.72
2022-11-18T02:35:48.118Z,99238.00
2022-11-18T02:38:17.855Z,99242.88
2022-11-18T02:40:46.493Z,99241.78
2022-11-18T02:43:16.756Z,99192.91
2022-11-18T02:45:45.702Z,99241.78
2022-11-18T02:48:14.959Z,99236.91
2022-11-18T02:50:43.062Z,99238.00
2022-11-18T02:53:11.748Z,99246.41
2022-11-18T02:55:39.634Z,99247.25
2022-11-18T02:58:07.547Z,99254.56
2022-11-18T03:00:35.411Z,99232.75
2022-11-18T03:03:22.877Z,99248.06
2022-11-18T03:05:54.020Z,99254.56
2022-11-18T03:08:23.836Z,99258.13
2022-11-18T03:10:54.679Z,99255.41
2022-11-18T03:13:25.428Z,99260.84
2022-11-18T03:15:56.001Z,99254.56
2022-11-18T03:18:28.648Z,99260.31
2022-11-18T03:20:58.983Z,99215.44
2022-11-18T03:23:28.745Z,99260.56
2022-11-18T03:25:57.682Z,99267.34
2022-11-18T03:28:27.467Z,99269.25
2022-11-18T03:30:57.010Z,99272.81
2022-11-18T03:33:32.066Z,99270.63
2022-11-18T03:35:59.911Z,99256.09
2022-11-18T03:38:29.213Z,99279.31
2022-11-18T03:40:59.179Z,99292.66
2022-11-18T03:43:28.694Z,99296.22
2022-11-18T03:45:58.056Z,99295.69
2022-11-18T03:48:28.185Z,99300.00
2022-11-18T03:50:58.447Z,99220.16
2022-11-18T03:53:27.102Z,99312.00
2022-11-18T03:55:58.441Z,99240.38
2022-11-18T03:58:28.117Z,99317.44
2022-11-18T04:00:59.268Z,99307.63
2022-11-18T04:03:28.566Z,99312.00
2022-11-18T04:05:58.301Z,99236.50
2022-11-18T04:08:28.170Z,99318.25
2022-11-18T04:10:58.810Z,99323.69
2022-11-18T04:13:27.509Z,99304.22
2022-11-18T04:15:55.402Z,99325.59
2022-11-18T04:18:23.396Z,99325.59
2022-11-18T04:20:52.950Z,99325.84
2022-11-18T04:23:20.819Z,99304.22
2022-11-18T04:25:48.699Z,99335.66
2022-11-18T04:28:16.651Z,99313.78
2022-11-18T04:30:44.863Z,99339.75
2022-11-18T04:33:12.739Z,99345.19
2022-11-18T04:35:40.624Z,99347.09
2022-11-18T04:38:09.841Z,99342.47
2022-11-18T04:40:37.740Z,99352.53
2022-11-18T04:43:05.915Z,99263.13
2022-11-18T04:45:33.773Z,99363.16
2022-11-18T04:48:03.758Z,99360.69
2022-11-18T04:50:31.953Z,99358.75
2022-11-18T04:53:00.122Z,99370.25
2022-11-18T04:55:29.482Z,99375.69
2022-11-18T04:57:57.417Z,99372.97
2022-11-18T05:00:25.381Z,99363.94
2022-11-18T05:02:53.547Z,99379.25
2022-11-18T05:05:21.403Z,99379.25
2022-11-18T05:07:49.421Z,99384.69
2022-11-18T05:10:27.402Z,99369.13
2022-11-18T05:12:56.387Z,99385.50
2022-11-18T05:15:24.900Z,99385.50
2022-11-18T05:17:52.841Z,99391.75
2022-11-18T05:20:20.907Z,99395.28
2022-11-18T05:22:49.072Z,99395.28
2022-11-18T05:25:17.013Z,99390.09
2022-11-18T05:27:44.933Z,99398.00
2022-11-18T05:30:15.444Z,99408.91
2022-11-18T05:32:44.729Z,99397.19
2022-11-18T05:35:16.258Z,99414.34
2022-11-18T05:37:44.113Z,99405.34
2022-11-18T05:40:30.299Z,99400.16
2022-11-18T05:43:12.005Z,99399.91
2022-11-18T05:45:44.388Z,99408.59
2022-11-18T05:48:16.263Z,99414.63
2022-11-18T05:50:44.139Z,99421.69
2022-11-18T05:53:12.000Z,99418.16
2022-11-18T05:55:58.411Z,99397.00
2022-11-18T05:58:26.383Z,99427.13
2022-11-18T06:01:00.835Z,99429.84
2022-11-18T06:03:36.170Z,99430.94
2022-11-18T06:06:04.917Z,99398.53
2022-11-18T06:08:33.912Z,99434.44
2022-11-18T06:11:04.454Z,99449.72
2022-11-18T06:13:33.377Z,99453.53
2022-11-18T06:16:02.648Z,99457.06
2022-11-18T06:18:32.844Z,99450.53
2022-11-18T06:21:02.446Z,99459.78
2022-11-18T06:23:33.903Z,99462.50
2022-11-18T06:26:01.795Z,99471.47
2022-11-18T06:28:29.995Z,99471.47
2022-11-18T06:30:59.033Z,99474.22
2022-11-18T06:33:28.499Z,99480.47
2022-11-18T06:35:57.393Z,99483.19
2022-11-18T06:38:25.519Z,99492.44
2022-11-18T06:40:57.225Z,99489.47
2022-11-18T06:43:41.626Z,99492.19
2022-11-18T06:46:30.798Z,99494.91
2022-11-18T06:49:00.987Z,99495.44
2022-11-18T06:51:29.366Z,99502.25
2022-11-18T06:53:57.205Z,99509.34
2022-11-18T06:56:28.529Z,99498.66
2022-11-18T06:58:59.685Z,99518.31
2022-11-18T07:01:28.499Z,99518.31
2022-11-18T07:03:56.909Z,99521.03
2022-11-18T07:06:31.004Z,99530.84
2022-11-18T07:08:59.450Z,99528.38
2022-11-18T07:11:29.837Z,99522.66
2022-11-18T07:13:59.910Z,99533.81
2022-11-18T07:16:28.614Z,99542.00
2022-11-18T07:18:57.172Z,99546.38
2022-11-18T07:21:27.810Z,99549.09
2022-11-18T07:23:55.842Z,99554.53
2022-11-18T07:26:23.728Z,99466.00
2022-11-18T07:28:51.547Z,99562.94
2022-11-18T07:31:21.528Z,99557.19
2022-11-18T07:33:49.671Z,99553.41
2022-11-18T07:36:21.804Z,99571.94
2022-11-18T07:38:51.660Z,99575.47
2022-11-18T07:41:20.126Z,99580.09
2022-11-18T07:43:48.528Z,99577.91
2022-11-18T07:46:18.316Z,99582.81
2022-11-18T07:48:47.143Z,99541.72
2022-11-18T07:51:15.938Z,99581.94
2022-11-18T07:53:43.941Z,99595.59
2022-11-18T07:56:13.332Z,99597.50
2022-11-18T07:58:41.451Z,99602.69
2022-11-18T08:01:10.554Z,99601.88
2022-11-18T08:03:38.659Z,99591.69
2022-11-18T08:06:07.589Z,99600.75
2022-11-18T08:08:35.471Z,99614.41
2022-11-18T08:11:06.015Z,99617.13
2022-11-18T08:13:35.403Z,99624.22
2022-11-18T08:16:03.619Z,99584.22
2022-11-18T08:18:31.703Z,99617.94
2022-11-18T08:21:03.025Z,99618.72
2022-11-18T08:23:33.993Z,99625.03
2022-11-18T08:26:04.786Z,99609.38
2022-11-18T08:28:32.833Z,99631.31
2022-11-18T08:31:02.478Z,99637.81
2022-11-18T08:33:30.371Z,99629.66
2022-11-18T08:35:58.264Z,99597.00
2022-11-18T08:38:26.187Z,99641.38
2022-11-18T08:40:54.350Z,99635.94
2022-11-18T08:43:22.261Z,99644.59
2022-11-18T08:45:50.151Z,99642.44
2022-11-18T08:48:19.420Z,99646.81
2022-11-18T08:50:47.668Z,99643.28
2022-11-18T08:53:17.028Z,99639.13
2022-11-18T08:55:44.908Z,99647.88
2022-11-18T08:58:12.808Z,99647.88
2022-11-18T09:00:40.707Z,99647.88
2022-11-18T09:03:08.596Z,99665.03
2022-11-18T09:05:37.967Z,99667.75
2022-11-18T09:08:06.389Z,99665.03
2022-11-18T09:10:35.688Z,99662.31
2022-11-18T09:13:33.410Z,99666.94
2022-11-18T09:15:51.667Z,99670.50
2022-11-18T09:18:19.541Z,99671.56
2022-11-18T09:20:56.670Z,99668.25
2022-11-18T09:23:24.568Z,99650.91
2022-11-18T09:25:59.105Z,99679.72
2022-11-18T09:28:27.144Z,99680.31
2022-11-18T09:30:55.367Z,99683.25
2022-11-18T09:33:23.457Z,99687.63
2022-11-18T09:35:51.428Z,99692.25
2022-11-18T09:38:20.717Z,99701.25
2022-11-18T09:40:53.902Z,99694.72
2022-11-18T09:43:24.378Z,99699.59
2022-11-18T09:45:55.303Z,99697.44
2022-11-18T09:48:45.250Z,99703.97
2022-11-18T09:51:13.121Z,99700.44
2022-11-18T09:53:43.159Z,99702.88
2022-11-18T09:56:14.008Z,99711.03
2022-11-18T09:58:41.927Z,99715.69
2022-11-18T10:01:12.946Z,99723.84
2022-11-18T10:03:41.001Z,99724.66
2022-11-18T10:06:22.043Z,99720.31
2022-11-18T10:09:01.343Z,99687.28
2022-11-18T10:11:36.102Z,99729.28
2022-11-18T10:14:14.670Z,99735.53
2022-11-18T10:16:47.367Z,99739.34
2022-11-18T10:19:24.197Z,99734.72
2022-11-18T10:21:56.989Z,99689.69
2022-11-18T10:24:26.867Z,99734.41
2022-11-18T10:26:56.320Z,99744.78
2022-11-18T10:29:24.199Z,99752.97
2022-11-18T10:32:01.148Z,99748.34
2022-11-18T10:34:31.938Z,99751.06
2022-11-18T10:37:00.896Z,99763.84
2022-11-18T10:39:30.198Z,99762.75
2022-11-18T10:42:01.560Z,99766.56
2022-11-18T10:44:34.451Z,99760.22
2022-11-18T10:47:30.345Z,99714.88
2022-11-18T10:49:59.775Z,99773.91
2022-11-18T10:52:28.234Z,99771.19
2022-11-18T10:55:27.384Z,99768.47
2022-11-18T10:57:57.522Z,99773.09
2022-11-18T11:00:43.292Z,99767.63
2022-11-18T11:03:35.539Z,99756.69
2022-11-18T11:06:30.161Z,99772.25
2022-11-18T11:08:58.963Z,99772.84
2022-11-18T11:11:29.981Z,99768.69
2022-11-18T11:14:02.955Z,99778.28
2022-11-18T11:16:30.868Z,99687.69
2022-11-18T11:19:01.169Z,99773.63
2022-11-18T11:21:29.075Z,99770.13
2022-11-18T11:23:56.979Z,99773.63
2022-11-18T11:29:27.194Z,99774.47
2022-11-18T11:31:58.625Z,99772.56
2022-11-18T11:34:28.634Z,99749.00
2022-11-18T11:36:58.519Z,99771.75
2022-11-18T11:39:44.052Z,99770.13
2022-11-18T11:42:18.668Z,99781.81
2022-11-18T11:44:54.364Z,99774.47
2022-11-18T11:47:44.527Z,99781.00
2022-11-18T11:50:14.964Z,99776.34
2022-11-18T11:52:46.866Z,99777.47
2022-11-18T11:55:18.485Z,99774.16
2022-11-18T11:57:58.912Z,99784.53
2022-11-18T12:00:28.884Z,99780.19
2022-11-18T12:03:04.584Z,99792.97
2022-11-18T12:05:34.518Z,99785.63
2022-11-18T12:08:03.309Z,99713.31
2022-11-18T12:10:37.395Z,99789.16
2022-11-18T12:13:17.108Z,99777.47
2022-11-18T12:16:00.267Z,99780.41
2022-11-18T12:18:30.843Z,99760.81
2022-11-18T12:20:58.931Z,99792.13
2022-11-18T12:23:27.514Z,99763.28
2022-11-18T12:26:06.224Z,99799.22
2022-11-18T12:28:37.891Z,99798.41
2022-11-18T12:31:42.545Z,99789.16
2022-11-18T12:34:21.536Z,99769.88
2022-11-18T12:36:49.449Z,99795.09
2022-11-18T12:39:47.275Z,99798.41
2022-11-18T12:43:00.022Z,99779.75
2022-11-18T12:45:51.945Z,99730.31
2022-11-18T12:48:37.363Z,99802.78
2022-11-18T12:51:39.956Z,99801.13
2022-11-18T12:54:21.558Z,99813.91
2022-11-18T12:56:49.588Z,99815.56
2022-11-18T12:59:17.771Z,99812.00
2022-11-18T13:01:47.140Z,99812.84
2022-11-18T13:04:16.614Z,99820.19
2022-11-18T13:06:44.871Z,99821.00
2022-11-18T13:09:16.136Z,99810.66
2022-11-18T13:11:46.374Z,99819.59
2022-11-18T13:14:34.441Z,99821.84
2022-11-18T13:17:21.281Z,99819.91
2022-11-18T13:19:58.176Z,99826.44
2022-11-18T13:22:44.028Z,99831.91
2022-11-18T13:25:25.632Z,99805.75
2022-11-18T13:27:57.298Z,99829.16
2022-11-18T13:30:25.331Z,99832.72
2022-11-18T13:32:55.040Z,99832.72
2022-11-18T13:35:27.187Z,99831.91
2022-11-18T13:37:55.938Z,99841.69
2022-11-18T13:40:25.950Z,99838.97
2022-11-18T13:42:53.893Z,99839.78
2022-11-18T13:45:21.896Z,99835.44
2022-11-18T13:47:50.756Z,99835.44
2022-11-18T13:50:22.732Z,99828.06
2022-11-18T13:52:54.393Z,99801.38
2022-11-18T13:55:23.421Z,99825.34
2022-11-18T13:57:52.145Z,99823.47
2022-11-18T14:00:24.351Z,99831.38
2022-11-18T14:02:58.038Z,99826.69
2022-11-18T14:05:27.341Z,99838.72
2022-11-18T14:08:01.465Z,99827.00
2022-11-18T14:10:41.601Z,99838.72
2022-11-18T14:13:21.893Z,99843.09
2022-11-18T14:15:49.835Z,99841.44
2022-11-18T14:18:20.950Z,99845.00
2022-11-18T14:20:54.754Z,99853.16
2022-11-18T14:23:27.301Z,99856.69
2022-11-18T14:25:55.232Z,99856.94
2022-11-18T14:28:24.590Z,99846.72
2022-11-18T14:31:07.344Z,99860.50
2022-11-18T14:33:37.308Z,99864.03
2022-11-18T14:36:11.743Z,99862.38
2022-11-18T14:39:04.021Z,99869.50
2022-11-18T14:41:49.722Z,99866.53
2022-11-18T14:44:17.959Z,99867.59
2022-11-18T14:46:46.946Z,99867.84
2022-11-18T14:49:16.558Z,99869.72
2022-11-18T14:51:46.057Z,99873.28
2022-11-18T14:54:17.261Z,99867.00
2022-11-18T14:56:47.726Z,99869.72
2022-11-18T14:59:15.951Z,99872.44
2022-11-18T15:01:44.227Z,99868.91
2022-11-18T15:04:12.106Z,99872.44
2022-11-18T15:06:40.339Z,99878.72
2022-11-18T15:09:09.966Z,99823.47
2022-11-18T15:11:38.165Z,99879.78
2022-11-18T15:14:06.099Z,99872.72
2022-11-18T15:16:34.344Z,99880.88
2022-11-18T15:19:03.553Z,99881.72
2022-11-18T15:21:31.483Z,99879.00
2022-11-18T15:23:59.440Z,99871.81
2022-11-18T15:26:29.472Z,99883.59
2022-11-18T15:28:57.996Z,99883.59
2022-11-18T15:31:26.365Z,99881.72
2022-11-18T15:33:54.377Z,99888.78
2022-11-18T15:36:23.062Z,99884.16
2022-11-18T15:38:51.009Z,99886.06
2022-11-18T15:41:21.014Z,99894.00
2022-11-18T15:43:50.731Z,99892.91
2022-11-18T15:46:20.098Z,99892.91
2022-11-18T15:48:48.321Z,99892.91
2022-11-18T15:51:16.642Z,99898.38
2022-11-18T15:53:44.614Z,99896.47
2022-11-18T15:56:17.027Z,99904.38
2022-11-18T15:58:45.237Z,99909.00
2022-11-18T16:01:17.417Z,99901.09
2022-11-18T16:03:45.311Z,99893.59
2022-11-18T16:06:13.167Z,99911.97
2022-11-18T16:08:41.035Z,99909.25
2022-11-18T16:11:29.165Z,99913.63
2022-11-18T16:14:01.156Z,99911.16
2022-11-18T16:16:31.254Z,99889.22
2022-11-18T16:18:59.478Z,99913.03
2022-11-18T16:21:28.042Z,99919.06
2022-11-18T16:23:57.987Z,99875.00
2022-11-18T16:26:26.020Z,99925.59
2022-11-18T16:28:54.003Z,99924.50
2022-11-18T16:31:39.753Z,99919.06
2022-11-18T16:34:09.288Z,99922.03
2022-11-18T16:36:37.230Z,99908.03
2022-11-18T16:39:06.435Z,99914.94
2022-11-18T16:41:34.794Z,99925.59
2022-11-18T16:44:04.507Z,99875.25
2022-11-18T16:46:33.039Z,99926.66
2022-11-18T16:49:01.098Z,99928.53
2022-11-18T16:51:31.118Z,99930.19
2022-11-18T16:54:00.011Z,99934.56
2022-11-18T16:56:28.925Z,99935.41
2022-11-18T16:59:00.467Z,99936.47
2022-11-18T17:01:30.314Z,99931.03
2022-11-18T17:04:00.415Z,99937.31
2022-11-18T17:06:28.434Z,99868.19
2022-11-18T17:08:57.735Z,99942.75
2022-11-18T17:11:25.574Z,99937.31
2022-11-18T17:13:57.754Z,99943.81
2022-11-18T17:16:26.360Z,99935.25
2022-11-18T17:18:57.621Z,99951.38
2022-11-18T17:21:25.701Z,99959.31
2022-11-18T17:23:53.634Z,99948.34
2022-11-18T17:26:23.839Z,99955.75
2022-11-18T17:28:51.751Z,99955.75
2022-11-18T17:31:20.331Z,99950.97
2022-11-18T17:33:48.502Z,99947.94
2022-11-18T17:36:17.547Z,99938.44
2022-11-18T17:38:46.040Z,99968.53
2022-11-18T17:41:34.855Z,99964.44
2022-11-18T17:44:04.801Z,99959.56
2022-11-18T17:46:37.730Z,99871.72
2022-11-18T17:49:07.147Z,99971.53
2022-11-18T17:51:35.034Z,99972.31
2022-11-18T17:54:02.915Z,99968.81
2022-11-18T17:56:31.211Z,99980.50
2022-11-18T17:58:59.214Z,99963.16
2022-11-18T18:01:28.565Z,99976.97
2022-11-18T18:03:56.607Z,99984.03
2022-11-18T18:06:24.469Z,99981.31
2022-11-18T18:08:56.481Z,99950.47
2022-11-18T18:11:24.366Z,99941.38
2022-11-18T18:14:09.711Z,99988.66
2022-11-18T18:16:39.140Z,99987.28
2022-11-18T18:19:07.480Z,99966.97
2022-11-18T18:21:35.809Z,99988.09
2022-11-18T18:24:04.981Z,99995.19
2022-11-18T18:26:32.948Z,100000.66
2022-11-18T18:29:00.932Z,100003.38
2022-11-18T18:31:28.919Z,100012.59
2022-11-18T18:33:58.653Z,100020.53
2022-11-18T18:36:26.567Z,100022.41
2022-11-18T18:38:54.445Z,100021.59
2022-11-18T18:41:23.333Z,100020.75
2022-11-18T18:43:51.404Z,100021.59
2022-11-18T18:46:33.935Z,100027.03
2022-11-18T18:49:05.580Z,100032.72
2022-11-18T18:51:36.127Z,100034.38
2022-11-18T18:54:04.053Z,100025.63
2022-11-18T18:56:31.907Z,100028.69
2022-11-18T18:58:59.804Z,100032.72
2022-11-18T19:01:27.866Z,100036.25
2022-11-18T19:03:56.641Z,100032.47
2022-11-18T19:06:51.694Z,99983.50
2022-11-18T19:09:14.930Z,100028.69
2022-11-18T19:12:00.949Z,100029.75
2022-11-18T19:14:29.231Z,100026.22
2022-11-18T19:16:57.371Z,100033.31
2022-11-18T19:19:40.104Z,100031.66
2022-11-18T19:22:10.149Z,100036.84
2022-11-18T19:24:49.395Z,100032.47
2022-11-18T19:27:18.408Z,100034.94
2022-11-18T19:29:46.302Z,100038.47
2022-11-18T19:32:14.500Z,100038.47
2022-11-18T19:34:42.412Z,100042.88
2022-11-18T19:37:11.736Z,100050.19
2022-11-18T19:39:39.634Z,100042.03
2022-11-18T19:42:07.877Z,100018.91
2022-11-18T19:44:35.732Z,100043.94
2022-11-18T19:47:03.622Z,100054.81
2022-11-18T19:49:32.010Z,100048.53
2022-11-18T19:51:59.922Z,100054.00
2022-11-18T19:54:29.177Z,100061.09
2022-11-18T19:56:57.439Z,100061.09
2022-11-18T19:59:25.350Z,100047.63
2022-11-18T20:01:53.596Z,100058.13
2022-11-18T20:04:21.569Z,100056.72
2022-11-18T20:06:49.562Z,100052.69
2022-11-18T20:09:18.345Z,100058.13
2022-11-18T20:11:47.884Z,100065.47
2022-11-18T20:14:15.833Z,100061.09
2022-11-18T20:16:43.710Z,100067.38
2022-11-18T20:19:13.612Z,100062.97
2022-11-18T20:21:43.227Z,100020.38
2022-11-18T20:24:14.180Z,100039.13
2022-11-18T20:26:42.082Z,100058.38
2022-11-18T20:29:11.321Z,100065.72
2022-11-18T20:31:39.218Z,100069.25
2022-11-18T20:34:07.117Z,100069.25
2022-11-18T20:36:35.899Z,100061.91
2022-11-18T20:39:04.807Z,100072.25
2022-11-18T20:41:32.722Z,100071.16
2022-11-18T20:44:00.682Z,100073.03
2022-11-18T20:46:30.087Z,100074.97
2022-11-18T20:48:57.955Z,100088.56
2022-11-18T20:51:26.744Z,100077.69
2022-11-18T20:53:55.503Z,100076.84
2022-11-18T20:56:24.634Z,100076.84
2022-11-18T20:58:52.514Z,100068.94
2022-11-18T21:01:21.350Z,100073.88
2022-11-18T21:03:52.614Z,100065.69
2022-11-18T21:06:20.694Z,100074.97
2022-11-18T21:08:48.610Z,100082.31
2022-11-18T21:11:17.205Z,100085.03
2022-11-18T21:14:02.278Z,100089.38
2022-11-18T21:16:30.230Z,100090.47
2022-11-18T21:18:59.545Z,100087.97
2022-11-18T21:21:44.778Z,100096.75
2022-11-18T21:24:12.882Z,100104.91
2022-11-18T21:26:41.059Z,100095.91
2022-11-18T21:29:10.253Z,100094.50
2022-11-18T21:31:38.242Z,100104.91
2022-11-18T21:34:07.556Z,100102.19
2022-11-18T21:36:37.897Z,100110.34
2022-11-18T21:39:09.422Z,100110.09
2022-11-18T21:41:37.404Z,100114.97
2022-11-18T21:44:06.617Z,100103.25
2022-11-18T21:46:34.833Z,100106.81
2022-11-18T21:49:02.756Z,100112.25
2022-11-18T21:51:32.410Z,100109.53
2022-11-18T21:54:00.765Z,100105.97
2022-11-18T21:56:30.850Z,100111.41
2022-11-18T21:58:59.711Z,100109.75
2022-11-18T22:01:28.653Z,100114.97
2022-11-18T22:03:57.354Z,100118.75
2022-11-18T22:06:25.478Z,100121.25
2022-11-18T22:08:54.743Z,100123.13
2022-11-18T22:11:22.750Z,100119.59
2022-11-18T22:13:50.803Z,100116.03
2022-11-18T22:16:19.359Z,100116.84
2022-11-18T22:18:53.110Z,100118.53
2022-11-18T22:21:26.108Z,100116.03
2022-11-18T22:23:57.600Z,100121.25
2022-11-18T22:26:25.547Z,100114.13
2022-11-18T22:28:53.975Z,100117.69
2022-11-18T22:31:22.600Z,100114.13
2022-11-18T22:33:50.729Z,100113.78
2022-11-18T22:36:20.213Z,100117.09
2022-11-18T22:38:48.126Z,100124.19
2022-11-18T22:41:32.841Z,100117.91
2022-11-18T22:44:05.680Z,100118.75
2022-11-18T22:46:35.550Z,100120.66
2022-11-18T22:49:03.638Z,100105.78
2022-11-18T22:51:31.509Z,100112.47
2022-11-18T22:54:30.840Z,100084.59
2022-11-18T22:56:48.788Z,100108.94
2022-11-18T22:59:17.254Z,100116.84
2022-11-18T23:01:45.374Z,100109.06
2022-11-18T23:04:13.306Z,100123.38
2022-11-18T23:06:41.168Z,100127.75
2022-11-18T23:09:10.385Z,100136.97
2022-11-18T23:11:55.843Z,100127.97
2022-11-18T23:14:25.151Z,100129.03
2022-11-18T23:16:53.041Z,100130.09
2022-11-18T23:19:21.350Z,100136.38
2022-11-18T23:21:49.472Z,100135.53
2022-11-18T23:24:18.276Z,100134.50
2022-11-18T23:26:46.232Z,100142.66
2022-11-18T23:29:14.469Z,100139.09
2022-11-18T23:31:44.174Z,100141.00
2022-11-18T23:34:12.722Z,100147.25
2022-11-18T23:36:40.784Z,100138.28
2022-11-18T23:39:08.690Z,100144.81
2022-11-18T23:41:36.575Z,100146.69
2022-11-18T23:44:04.713Z,100142.09
2022-11-18T23:46:32.699Z,100138.53
2022-11-18T23:49:02.016Z,100141.16
2022-11-18T23:51:29.881Z,100116.44
2022-11-18T23:53:58.177Z,100150.25
2022-11-18T23:56:26.960Z,100156.75
2022-11-18T23:58:56.511Z,100154.88
